sensor_id;sensor_type;location;lat;lon;timestamp;temperature;humidity
68128;SHT30;54931;52.098;21.006;2023-03-23T00:01:30;8.83;76.30
68128;SHT30;54931;52.098;21.006;2023-03-23T00:03:58;8.83;76.26
68128;SHT30;54931;52.098;21.006;2023-03-23T00:06:27;8.84;76.30
68128;SHT30;54931;52.098;21.006;2023-03-23T00:09:00;8.85;76.26
68128;SHT30;54931;52.098;21.006;2023-03-23T00:11:31;8.84;76.32
68128;SHT30;54931;52.098;21.006;2023-03-23T00:14:00;8.85;76.21
68128;SHT30;54931;52.098;21.006;2023-03-23T00:16:30;8.83;76.21
68128;SHT30;54931;52.098;21.006;2023-03-23T00:19:09;8.82;76.28
68128;SHT30;54931;52.098;21.006;2023-03-23T00:21:42;8.82;76.26
68128;SHT30;54931;52.098;21.006;2023-03-23T00:24:12;8.80;76.35
68128;SHT30;54931;52.098;21.006;2023-03-23T00:26:44;8.81;76.24
68128;SHT30;54931;52.098;21.006;2023-03-23T00:29:18;8.78;76.08
68128;SHT30;54931;52.098;21.006;2023-03-23T00:31:48;8.74;76.13
68128;SHT30;54931;52.098;21.006;2023-03-23T00:34:18;8.72;76.37
68128;SHT30;54931;52.098;21.006;2023-03-23T00:36:49;8.71;76.40
68128;SHT30;54931;52.098;21.006;2023-03-23T00:39:25;8.70;76.49
68128;SHT30;54931;52.098;21.006;2023-03-23T00:41:55;8.70;76.57
68128;SHT30;54931;52.098;21.006;2023-03-23T00:44:28;8.71;76.64
68128;SHT30;54931;52.098;21.006;2023-03-23T00:46:58;8.73;76.66
68128;SHT30;54931;52.098;21.006;2023-03-23T00:49:27;8.77;76.69
68128;SHT30;54931;52.098;21.006;2023-03-23T00:51:56;8.83;76.59
68128;SHT30;54931;52.098;21.006;2023-03-23T00:54:26;8.89;76.55
68128;SHT30;54931;52.098;21.006;2023-03-23T00:56:54;8.95;76.40
68128;SHT30;54931;52.098;21.006;2023-03-23T00:59:23;8.98;76.34
68128;SHT30;54931;52.098;21.006;2023-03-23T01:01:50;9.03;76.25
68128;SHT30;54931;52.098;21.006;2023-03-23T01:04:18;9.06;76.11
68128;SHT30;54931;52.098;21.006;2023-03-23T01:06:48;9.08;76.04
68128;SHT30;54931;52.098;21.006;2023-03-23T01:09:18;9.11;75.86
68128;SHT30;54931;52.098;21.006;2023-03-23T01:11:49;9.10;75.79
68128;SHT30;54931;52.098;21.006;2023-03-23T01:14:18;9.09;75.79
68128;SHT30;54931;52.098;21.006;2023-03-23T01:16:47;9.10;75.77
68128;SHT30;54931;52.098;21.006;2023-03-23T01:19:16;9.10;75.76
68128;SHT30;54931;52.098;21.006;2023-03-23T01:21:44;9.10;75.78
68128;SHT30;54931;52.098;21.006;2023-03-23T01:24:12;9.10;75.75
68128;SHT30;54931;52.098;21.006;2023-03-23T01:26:40;9.10;75.76
68128;SHT30;54931;52.098;21.006;2023-03-23T01:29:08;9.10;75.74
68128;SHT30;54931;52.098;21.006;2023-03-23T01:31:37;9.12;75.71
68128;SHT30;54931;52.098;21.006;2023-03-23T01:34:06;9.11;75.68
68128;SHT30;54931;52.098;21.006;2023-03-23T01:36:36;9.09;75.66
68128;SHT30;54931;52.098;21.006;2023-03-23T01:39:05;9.07;75.70
68128;SHT30;54931;52.098;21.006;2023-03-23T01:41:37;9.07;75.65
68128;SHT30;54931;52.098;21.006;2023-03-23T01:46:43;9.05;75.70
68128;SHT30;54931;52.098;21.006;2023-03-23T01:49:12;9.04;75.71
68128;SHT30;54931;52.098;21.006;2023-03-23T01:51:53;9.03;75.73
68128;SHT30;54931;52.098;21.006;2023-03-23T01:54:25;9.03;75.79
68128;SHT30;54931;52.098;21.006;2023-03-23T01:56:59;9.03;75.82
68128;SHT30;54931;52.098;21.006;2023-03-23T01:59:34;9.02;75.86
68128;SHT30;54931;52.098;21.006;2023-03-23T02:02:03;9.01;75.79
68128;SHT30;54931;52.098;21.006;2023-03-23T02:04:31;8.98;75.86
68128;SHT30;54931;52.098;21.006;2023-03-23T02:07:02;8.96;75.85
68128;SHT30;54931;52.098;21.006;2023-03-23T02:09:31;8.93;75.97
68128;SHT30;54931;52.098;21.006;2023-03-23T02:11:59;8.90;76.03
68128;SHT30;54931;52.098;21.006;2023-03-23T02:14:27;8.88;76.12
68128;SHT30;54931;52.098;21.006;2023-03-23T02:17:08;8.86;76.12
68128;SHT30;54931;52.098;21.006;2023-03-23T02:26:03;8.71;76.34
68128;SHT30;54931;52.098;21.006;2023-03-23T02:34:58;8.69;76.82
68128;SHT30;54931;52.098;21.006;2023-03-23T02:37:36;8.69;76.79
68128;SHT30;54931;52.098;21.006;2023-03-23T02:40:15;8.69;76.67
68128;SHT30;54931;52.098;21.006;2023-03-23T02:42:53;8.68;76.68
68128;SHT30;54931;52.098;21.006;2023-03-23T02:45:24;8.67;76.73
68128;SHT30;54931;52.098;21.006;2023-03-23T02:47:56;8.69;76.82
68128;SHT30;54931;52.098;21.006;2023-03-23T02:50:26;8.71;76.83
68128;SHT30;54931;52.098;21.006;2023-03-23T02:52:56;8.73;76.80
68128;SHT30;54931;52.098;21.006;2023-03-23T02:55:27;8.75;76.82
68128;SHT30;54931;52.098;21.006;2023-03-23T02:57:57;8.77;76.80
68128;SHT30;54931;52.098;21.006;2023-03-23T03:00:25;8.78;76.78
68128;SHT30;54931;52.098;21.006;2023-03-23T03:02:54;8.80;76.83
68128;SHT30;54931;52.098;21.006;2023-03-23T03:08:24;8.83;76.79
68128;SHT30;54931;52.098;21.006;2023-03-23T03:11:18;8.84;76.71
68128;SHT30;54931;52.098;21.006;2023-03-23T03:16:40;8.87;76.74
68128;SHT30;54931;52.098;21.006;2023-03-23T03:19:24;8.88;76.73
68128;SHT30;54931;52.098;21.006;2023-03-23T03:22:00;8.91;76.75
68128;SHT30;54931;52.098;21.006;2023-03-23T03:24:29;8.95;76.70
68128;SHT30;54931;52.098;21.006;2023-03-23T03:26:58;8.97;76.70
68128;SHT30;54931;52.098;21.006;2023-03-23T03:29:35;9.00;76.55
68128;SHT30;54931;52.098;21.006;2023-03-23T03:32:10;9.01;76.52
68128;SHT30;54931;52.098;21.006;2023-03-23T03:34:44;9.04;76.48
68128;SHT30;54931;52.098;21.006;2023-03-23T03:37:12;9.03;76.38
68128;SHT30;54931;52.098;21.006;2023-03-23T03:39:40;9.02;76.31
68128;SHT30;54931;52.098;21.006;2023-03-23T03:42:08;8.99;76.25
68128;SHT30;54931;52.098;21.006;2023-03-23T03:44:35;8.95;76.29
68128;SHT30;54931;52.098;21.006;2023-03-23T03:47:03;8.90;76.32
68128;SHT30;54931;52.098;21.006;2023-03-23T03:49:31;8.86;76.39
68128;SHT30;54931;52.098;21.006;2023-03-23T03:51:59;8.80;76.40
68128;SHT30;54931;52.098;21.006;2023-03-23T03:54:27;8.72;76.44
68128;SHT30;54931;52.098;21.006;2023-03-23T03:56:55;8.65;76.61
68128;SHT30;54931;52.098;21.006;2023-03-23T03:59:24;8.59;76.84
68128;SHT30;54931;52.098;21.006;2023-03-23T04:01:53;8.53;76.93
68128;SHT30;54931;52.098;21.006;2023-03-23T04:04:21;8.46;77.12
68128;SHT30;54931;52.098;21.006;2023-03-23T04:06:49;8.43;77.50
68128;SHT30;54931;52.098;21.006;2023-03-23T04:09:17;8.40;77.54
68128;SHT30;54931;52.098;21.006;2023-03-23T04:11:46;8.37;77.55
68128;SHT30;54931;52.098;21.006;2023-03-23T04:14:14;8.33;77.61
68128;SHT30;54931;52.098;21.006;2023-03-23T04:16:42;8.30;77.83
68128;SHT30;54931;52.098;21.006;2023-03-23T04:19:10;8.27;77.79
68128;SHT30;54931;52.098;21.006;2023-03-23T04:21:39;8.24;77.70
68128;SHT30;54931;52.098;21.006;2023-03-23T04:24:07;8.17;77.77
68128;SHT30;54931;52.098;21.006;2023-03-23T04:26:36;8.15;77.89
68128;SHT30;54931;52.098;21.006;2023-03-23T04:29:08;8.11;78.03
68128;SHT30;54931;52.098;21.006;2023-03-23T04:31:36;8.09;78.14
68128;SHT30;54931;52.098;21.006;2023-03-23T04:34:04;8.07;78.29
68128;SHT30;54931;52.098;21.006;2023-03-23T04:36:32;8.05;78.20
68128;SHT30;54931;52.098;21.006;2023-03-23T04:39:03;8.03;78.33
68128;SHT30;54931;52.098;21.006;2023-03-23T04:41:34;8.01;78.44
68128;SHT30;54931;52.098;21.006;2023-03-23T04:44:02;8.00;78.50
68128;SHT30;54931;52.098;21.006;2023-03-23T04:46:32;7.98;78.51
68128;SHT30;54931;52.098;21.006;2023-03-23T04:49:00;7.97;78.53
68128;SHT30;54931;52.098;21.006;2023-03-23T04:51:29;7.95;78.63
68128;SHT30;54931;52.098;21.006;2023-03-23T04:53:58;7.95;78.71
68128;SHT30;54931;52.098;21.006;2023-03-23T04:56:26;7.95;78.74
68128;SHT30;54931;52.098;21.006;2023-03-23T04:58:53;7.94;78.62
68128;SHT30;54931;52.098;21.006;2023-03-23T05:01:21;7.92;78.67
68128;SHT30;54931;52.098;21.006;2023-03-23T05:03:49;7.92;78.81
68128;SHT30;54931;52.098;21.006;2023-03-23T05:06:18;7.95;78.88
68128;SHT30;54931;52.098;21.006;2023-03-23T05:08:45;7.97;78.86
68128;SHT30;54931;52.098;21.006;2023-03-23T05:11:14;7.98;78.89
68128;SHT30;54931;52.098;21.006;2023-03-23T05:13:41;8.03;78.99
68128;SHT30;54931;52.098;21.006;2023-03-23T05:16:11;8.07;78.90
68128;SHT30;54931;52.098;21.006;2023-03-23T05:18:40;8.12;78.90
68128;SHT30;54931;52.098;21.006;2023-03-23T05:21:07;8.17;78.82
68128;SHT30;54931;52.098;21.006;2023-03-23T05:23:35;8.23;78.76
68128;SHT30;54931;52.098;21.006;2023-03-23T05:26:03;8.29;78.72
68128;SHT30;54931;52.098;21.006;2023-03-23T05:28:32;8.36;78.61
68128;SHT30;54931;52.098;21.006;2023-03-23T05:31:00;8.45;78.53
68128;SHT30;54931;52.098;21.006;2023-03-23T05:33:28;8.53;78.37
68128;SHT30;54931;52.098;21.006;2023-03-23T05:35:56;8.63;78.24
68128;SHT30;54931;52.098;21.006;2023-03-23T05:38:24;8.72;78.04
68128;SHT30;54931;52.098;21.006;2023-03-23T05:40:52;8.81;77.93
68128;SHT30;54931;52.098;21.006;2023-03-23T05:43:20;8.91;77.76
68128;SHT30;54931;52.098;21.006;2023-03-23T05:45:48;9.01;77.49
68128;SHT30;54931;52.098;21.006;2023-03-23T05:48:16;9.12;77.19
68128;SHT30;54931;52.098;21.006;2023-03-23T05:50:44;9.23;77.05
68128;SHT30;54931;52.098;21.006;2023-03-23T05:53:12;9.36;76.84
68128;SHT30;54931;52.098;21.006;2023-03-23T05:55:40;9.51;76.70
68128;SHT30;54931;52.098;21.006;2023-03-23T05:58:08;9.67;76.42
68128;SHT30;54931;52.098;21.006;2023-03-23T06:00:36;9.87;76.06
68128;SHT30;54931;52.098;21.006;2023-03-23T06:03:04;10.11;75.59
68128;SHT30;54931;52.098;21.006;2023-03-23T06:05:32;10.30;75.31
68128;SHT30;54931;52.098;21.006;2023-03-23T06:08:00;10.43;75.09
68128;SHT30;54931;52.098;21.006;2023-03-23T06:10:29;10.55;74.63
68128;SHT30;54931;52.098;21.006;2023-03-23T06:12:58;10.64;74.28
68128;SHT30;54931;52.098;21.006;2023-03-23T06:15:26;10.72;73.84
68128;SHT30;54931;52.098;21.006;2023-03-23T06:17:59;10.84;73.55
68128;SHT30;54931;52.098;21.006;2023-03-23T06:20:28;11.07;73.20
68128;SHT30;54931;52.098;21.006;2023-03-23T06:22:57;11.26;72.65
68128;SHT30;54931;52.098;21.006;2023-03-23T06:25:25;11.35;71.85
68128;SHT30;54931;52.098;21.006;2023-03-23T06:27:53;11.44;71.26
68128;SHT30;54931;52.098;21.006;2023-03-23T06:30:22;11.50;70.96
68128;SHT30;54931;52.098;21.006;2023-03-23T06:32:50;11.59;71.07
68128;SHT30;54931;52.098;21.006;2023-03-23T06:35:19;11.72;70.81
68128;SHT30;54931;52.098;21.006;2023-03-23T06:37:47;11.81;70.56
68128;SHT30;54931;52.098;21.006;2023-03-23T06:40:15;11.92;70.40
68128;SHT30;54931;52.098;21.006;2023-03-23T06:42:45;12.02;69.17
68128;SHT30;54931;52.098;21.006;2023-03-23T06:45:13;12.05;68.60
68128;SHT30;54931;52.098;21.006;2023-03-23T06:47:41;12.11;68.37
68128;SHT30;54931;52.098;21.006;2023-03-23T06:50:10;12.28;68.57
68128;SHT30;54931;52.098;21.006;2023-03-23T06:52:38;12.66;68.06
68128;SHT30;54931;52.098;21.006;2023-03-23T06:55:06;13.08;66.88
68128;SHT30;54931;52.098;21.006;2023-03-23T06:57:36;13.44;65.84
68128;SHT30;54931;52.098;21.006;2023-03-23T07:00:05;13.73;65.47
68128;SHT30;54931;52.098;21.006;2023-03-23T07:02:35;14.02;64.99
68128;SHT30;54931;52.098;21.006;2023-03-23T07:05:04;14.20;64.53
68128;SHT30;54931;52.098;21.006;2023-03-23T07:07:33;14.31;63.64
68128;SHT30;54931;52.098;21.006;2023-03-23T07:10:01;14.47;63.56
68128;SHT30;54931;52.098;21.006;2023-03-23T07:12:31;14.60;63.01
68128;SHT30;54931;52.098;21.006;2023-03-23T07:15:00;14.75;62.23
68128;SHT30;54931;52.098;21.006;2023-03-23T07:17:29;14.81;60.61
68128;SHT30;54931;52.098;21.006;2023-03-23T07:19:57;14.98;60.54
68128;SHT30;54931;52.098;21.006;2023-03-23T07:22:25;15.14;60.47
68128;SHT30;54931;52.098;21.006;2023-03-23T07:24:53;15.21;58.87
68128;SHT30;54931;52.098;21.006;2023-03-23T07:27:21;15.17;59.20
68128;SHT30;54931;52.098;21.006;2023-03-23T07:29:50;15.27;58.98
68128;SHT30;54931;52.098;21.006;2023-03-23T07:32:18;15.36;58.94
68128;SHT30;54931;52.098;21.006;2023-03-23T07:34:46;15.42;58.82
68128;SHT30;54931;52.098;21.006;2023-03-23T07:37:14;15.52;59.16
68128;SHT30;54931;52.098;21.006;2023-03-23T07:39:42;15.65;58.53
68128;SHT30;54931;52.098;21.006;2023-03-23T07:42:10;15.85;58.51
68128;SHT30;54931;52.098;21.006;2023-03-23T07:44:38;16.20;56.92
68128;SHT30;54931;52.098;21.006;2023-03-23T07:47:06;16.56;56.07
68128;SHT30;54931;52.098;21.006;2023-03-23T07:49:35;16.67;54.73
68128;SHT30;54931;52.098;21.006;2023-03-23T07:52:04;16.48;53.83
68128;SHT30;54931;52.098;21.006;2023-03-23T07:54:31;16.37;54.53
68128;SHT30;54931;52.098;21.006;2023-03-23T07:56:59;16.32;54.83
68128;SHT30;54931;52.098;21.006;2023-03-23T07:59:27;16.18;53.92
68128;SHT30;54931;52.098;21.006;2023-03-23T08:01:55;15.98;54.56
68128;SHT30;54931;52.098;21.006;2023-03-23T08:04:25;15.93;54.99
68128;SHT30;54931;52.098;21.006;2023-03-23T08:06:54;15.99;54.77
68128;SHT30;54931;52.098;21.006;2023-03-23T08:09:22;16.22;54.47
68128;SHT30;54931;52.098;21.006;2023-03-23T08:11:50;16.27;54.68
68128;SHT30;54931;52.098;21.006;2023-03-23T08:14:18;16.24;58.18
68128;SHT30;54931;52.098;21.006;2023-03-23T08:16:46;16.26;58.83
68128;SHT30;54931;52.098;21.006;2023-03-23T08:19:15;16.34;57.91
68128;SHT30;54931;52.098;21.006;2023-03-23T08:21:42;16.48;57.72
68128;SHT30;54931;52.098;21.006;2023-03-23T08:24:10;16.87;57.52
68128;SHT30;54931;52.098;21.006;2023-03-23T08:26:38;17.33;56.82
68128;SHT30;54931;52.098;21.006;2023-03-23T08:29:07;17.90;54.43
68128;SHT30;54931;52.098;21.006;2023-03-23T08:31:35;18.27;54.17
68128;SHT30;54931;52.098;21.006;2023-03-23T08:34:04;18.51;53.23
68128;SHT30;54931;52.098;21.006;2023-03-23T08:36:32;18.50;51.46
68128;SHT30;54931;52.098;21.006;2023-03-23T08:39:01;18.34;51.56
68128;SHT30;54931;52.098;21.006;2023-03-23T08:41:31;18.11;51.89
68128;SHT30;54931;52.098;21.006;2023-03-23T08:44:00;17.87;51.50
68128;SHT30;54931;52.098;21.006;2023-03-23T08:46:28;17.64;52.17
68128;SHT30;54931;52.098;21.006;2023-03-23T08:48:56;17.52;52.56
68128;SHT30;54931;52.098;21.006;2023-03-23T08:51:24;17.42;52.42
68128;SHT30;54931;52.098;21.006;2023-03-23T08:53:53;17.30;52.37
68128;SHT30;54931;52.098;21.006;2023-03-23T08:56:22;17.28;53.50
68128;SHT30;54931;52.098;21.006;2023-03-23T08:58:50;17.33;53.52
68128;SHT30;54931;52.098;21.006;2023-03-23T09:01:18;17.40;53.91
68128;SHT30;54931;52.098;21.006;2023-03-23T09:03:46;17.34;52.24
68128;SHT30;54931;52.098;21.006;2023-03-23T09:06:14;17.24;52.56
68128;SHT30;54931;52.098;21.006;2023-03-23T09:08:42;17.21;53.38
68128;SHT30;54931;52.098;21.006;2023-03-23T09:11:10;17.22;52.68
68128;SHT30;54931;52.098;21.006;2023-03-23T09:13:39;17.24;53.27
68128;SHT30;54931;52.098;21.006;2023-03-23T09:16:08;17.29;53.33
68128;SHT30;54931;52.098;21.006;2023-03-23T09:18:37;17.23;52.15
68128;SHT30;54931;52.098;21.006;2023-03-23T09:21:05;17.12;52.93
68128;SHT30;54931;52.098;21.006;2023-03-23T09:23:33;17.12;53.54
68128;SHT30;54931;52.098;21.006;2023-03-23T09:26:02;17.08;52.95
68128;SHT30;54931;52.098;21.006;2023-03-23T09:28:30;17.02;52.42
68128;SHT30;54931;52.098;21.006;2023-03-23T09:30:58;16.95;53.01
68128;SHT30;54931;52.098;21.006;2023-03-23T09:33:26;17.02;53.58
68128;SHT30;54931;52.098;21.006;2023-03-23T09:36:00;17.08;52.86
68128;SHT30;54931;52.098;21.006;2023-03-23T09:38:29;17.15;53.04
68128;SHT30;54931;52.098;21.006;2023-03-23T09:41:04;17.25;52.93
68128;SHT30;54931;52.098;21.006;2023-03-23T09:44:07;17.42;53.22
68128;SHT30;54931;52.098;21.006;2023-03-23T09:50:09;17.84;51.05
68128;SHT30;54931;52.098;21.006;2023-03-23T09:52:55;17.99;50.64
68128;SHT30;54931;52.098;21.006;2023-03-23T09:55:28;18.07;49.92
68128;SHT30;54931;52.098;21.006;2023-03-23T10:03:58;18.16;49.71
68128;SHT30;54931;52.098;21.006;2023-03-23T10:06:53;18.32;49.42
68128;SHT30;54931;52.098;21.006;2023-03-23T10:09:37;18.38;49.27
68128;SHT30;54931;52.098;21.006;2023-03-23T10:12:16;18.52;49.39
68128;SHT30;54931;52.098;21.006;2023-03-23T10:20:54;19.84;45.18
68128;SHT30;54931;52.098;21.006;2023-03-23T10:29:26;20.93;44.52
68128;SHT30;54931;52.098;21.006;2023-03-23T10:32:00;21.38;43.07
68128;SHT30;54931;52.098;21.006;2023-03-23T10:35:11;21.92;42.07
68128;SHT30;54931;52.098;21.006;2023-03-23T10:37:44;22.43;40.74
68128;SHT30;54931;52.098;21.006;2023-03-23T10:40:22;22.81;40.91
68128;SHT30;54931;52.098;21.006;2023-03-23T10:42:56;22.78;38.84
68128;SHT30;54931;52.098;21.006;2023-03-23T10:45:27;22.50;39.09
68128;SHT30;54931;52.098;21.006;2023-03-23T10:51:02;22.56;38.73
68128;SHT30;54931;52.098;21.006;2023-03-23T10:53:37;22.60;38.59
68128;SHT30;54931;52.098;21.006;2023-03-23T10:56:20;22.47;37.91
68128;SHT30;54931;52.098;21.006;2023-03-23T10:58:55;22.28;38.30
68128;SHT30;54931;52.098;21.006;2023-03-23T11:01:33;22.13;38.76
68128;SHT30;54931;52.098;21.006;2023-03-23T11:04:10;21.99;38.63
68128;SHT30;54931;52.098;21.006;2023-03-23T11:07:02;21.92;39.48
68128;SHT30;54931;52.098;21.006;2023-03-23T11:09:35;22.16;39.68
68128;SHT30;54931;52.098;21.006;2023-03-23T11:12:15;22.27;38.93
68128;SHT30;54931;52.098;21.006;2023-03-23T11:14:47;22.23;39.18
68128;SHT30;54931;52.098;21.006;2023-03-23T11:17:21;22.19;38.51
68128;SHT30;54931;52.098;21.006;2023-03-23T11:19:53;21.95;38.52
68128;SHT30;54931;52.098;21.006;2023-03-23T11:22:26;21.63;38.93
68128;SHT30;54931;52.098;21.006;2023-03-23T11:24:59;21.40;39.42
68128;SHT30;54931;52.098;21.006;2023-03-23T11:27:31;21.29;39.74
68128;SHT30;54931;52.098;21.006;2023-03-23T11:30:07;21.42;40.20
68128;SHT30;54931;52.098;21.006;2023-03-23T11:32:47;21.80;39.70
68128;SHT30;54931;52.098;21.006;2023-03-23T11:35:27;22.05;39.26
68128;SHT30;54931;52.098;21.006;2023-03-23T11:37:57;22.33;38.63
68128;SHT30;54931;52.098;21.006;2023-03-23T11:40:27;22.51;37.51
68128;SHT30;54931;52.098;21.006;2023-03-23T11:43:00;22.63;37.25
68128;SHT30;54931;52.098;21.006;2023-03-23T11:45:38;22.62;36.24
68128;SHT30;54931;52.098;21.006;2023-03-23T11:48:19;22.53;36.10
68128;SHT30;54931;52.098;21.006;2023-03-23T11:51:16;22.69;36.90
68128;SHT30;54931;52.098;21.006;2023-03-23T11:56:34;22.83;35.89
68128;SHT30;54931;52.098;21.006;2023-03-23T11:59:09;22.72;36.16
68128;SHT30;54931;52.098;21.006;2023-03-23T12:08:10;22.48;36.64
68128;SHT30;54931;52.098;21.006;2023-03-23T12:19:53;22.74;35.56
68128;SHT30;54931;52.098;21.006;2023-03-23T12:28:17;22.36;36.78
68128;SHT30;54931;52.098;21.006;2023-03-23T12:34:10;22.47;37.20
68128;SHT30;54931;52.098;21.006;2023-03-23T12:37:15;22.38;36.94
68128;SHT30;54931;52.098;21.006;2023-03-23T12:40:03;22.31;36.83
68128;SHT30;54931;52.098;21.006;2023-03-23T12:49:12;22.01;38.01
68128;SHT30;54931;52.098;21.006;2023-03-23T12:57:32;21.71;38.94
68128;SHT30;54931;52.098;21.006;2023-03-23T13:00:16;21.52;38.85
68128;SHT30;54931;52.098;21.006;2023-03-23T13:05:33;21.29;40.15
68128;SHT30;54931;52.098;21.006;2023-03-23T13:08:33;21.28;39.75
68128;SHT30;54931;52.098;21.006;2023-03-23T13:11:10;21.16;39.87
68128;SHT30;54931;52.098;21.006;2023-03-23T13:17:06;20.96;39.73
68128;SHT30;54931;52.098;21.006;2023-03-23T13:23:12;20.53;40.72
68128;SHT30;54931;52.098;21.006;2023-03-23T13:25:49;20.35;41.05
68128;SHT30;54931;52.098;21.006;2023-03-23T13:28:35;20.22;
68128;SHT30;54931;52.098;21.006;2023-03-23T13:31:25;20.09;41.60
68128;SHT30;54931;52.098;21.006;2023-03-23T13:34:45;19.95;42.01
68128;SHT30;54931;52.098;21.006;2023-03-23T13:36:58;19.83;42.36
68128;SHT30;54931;52.098;21.006;2023-03-23T13:42:26;19.67;42.83
68128;SHT30;54931;52.098;21.006;2023-03-23T13:45:42;19.61;43.25
68128;SHT30;54931;52.098;21.006;2023-03-23T13:50:49;19.45;42.44
68128;SHT30;54931;52.098;21.006;2023-03-23T13:53:30;19.48;42.51
68128;SHT30;54931;52.098;21.006;2023-03-23T13:58:51;19.75;42.63
68128;SHT30;54931;52.098;21.006;2023-03-23T14:01:55;19.85;42.60
68128;SHT30;54931;52.098;21.006;2023-03-23T14:07:58;19.85;42.66
68128;SHT30;54931;52.098;21.006;2023-03-23T14:11:12;19.74;42.43
68128;SHT30;54931;52.098;21.006;2023-03-23T14:13:40;19.55;42.87
68128;SHT30;54931;52.098;21.006;2023-03-23T14:16:39;19.41;43.64
68128;SHT30;54931;52.098;21.006;2023-03-23T14:21:52;19.16;43.83
68128;SHT30;54931;52.098;21.006;2023-03-23T14:24:27;19.05;43.64
68128;SHT30;54931;52.098;21.006;2023-03-23T14:27:10;18.95;43.62
68128;SHT30;54931;52.098;21.006;2023-03-23T14:29:46;18.88;43.84
68128;SHT30;54931;52.098;21.006;2023-03-23T14:32:28;18.82;44.34
68128;SHT30;54931;52.098;21.006;2023-03-23T14:35:00;18.72;44.13
68128;SHT30;54931;52.098;21.006;2023-03-23T14:37:39;18.62;44.38
68128;SHT30;54931;52.098;21.006;2023-03-23T14:40:26;18.55;44.82
68128;SHT30;54931;52.098;21.006;2023-03-23T14:42:56;18.44;45.26
68128;SHT30;54931;52.098;21.006;2023-03-23T14:45:26;18.34;45.77
68128;SHT30;54931;52.098;21.006;2023-03-23T14:47:58;18.27;45.94
68128;SHT30;54931;52.098;21.006;2023-03-23T14:50:35;18.18;46.29
68128;SHT30;54931;52.098;21.006;2023-03-23T14:53:32;18.11;46.78
68128;SHT30;54931;52.098;21.006;2023-03-23T14:56:12;18.01;47.40
68128;SHT30;54931;52.098;21.006;2023-03-23T14:58:46;17.92;47.76
68128;SHT30;54931;52.098;21.006;2023-03-23T15:01:19;17.84;47.87
68128;SHT30;54931;52.098;21.006;2023-03-23T15:04:00;17.79;47.84
68128;SHT30;54931;52.098;21.006;2023-03-23T15:06:37;17.75;48.15
68128;SHT30;54931;52.098;21.006;2023-03-23T15:09:11;17.69;48.18
68128;SHT30;54931;52.098;21.006;2023-03-23T15:11:51;17.65;48.27
68128;SHT30;54931;52.098;21.006;2023-03-23T15:14:53;17.59;48.56
68128;SHT30;54931;52.098;21.006;2023-03-23T15:17:31;17.55;48.84
68128;SHT30;54931;52.098;21.006;2023-03-23T15:20:07;17.49;48.99
68128;SHT30;54931;52.098;21.006;2023-03-23T15:22:47;17.43;49.36
68128;SHT30;54931;52.098;21.006;2023-03-23T15:27:54;17.30;49.82
68128;SHT30;54931;52.098;21.006;2023-03-23T15:30:49;17.24;50.09
68128;SHT30;54931;52.098;21.006;2023-03-23T15:33:20;17.18;50.28
68128;SHT30;54931;52.098;21.006;2023-03-23T15:35:55;17.14;50.42
68128;SHT30;54931;52.098;21.006;2023-03-23T15:38:30;17.09;50.53
68128;SHT30;54931;52.098;21.006;2023-03-23T15:41:03;17.05;50.69
68128;SHT30;54931;52.098;21.006;2023-03-23T15:43:53;17.02;50.69
68128;SHT30;54931;52.098;21.006;2023-03-23T15:46:28;16.99;50.99
68128;SHT30;54931;52.098;21.006;2023-03-23T15:51:27;16.95;50.95
68128;SHT30;54931;52.098;21.006;2023-03-23T15:53:57;16.94;50.93
68128;SHT30;54931;52.098;21.006;2023-03-23T15:56:25;16.92;51.12
68128;SHT30;54931;52.098;21.006;2023-03-23T15:58:54;16.90;51.16
68128;SHT30;54931;52.098;21.006;2023-03-23T16:01:27;16.88;51.33
68128;SHT30;54931;52.098;21.006;2023-03-23T16:06:43;16.85;51.11
68128;SHT30;54931;52.098;21.006;2023-03-23T16:09:17;16.85;51.19
68128;SHT30;54931;52.098;21.006;2023-03-23T16:11:47;16.83;51.20
68128;SHT30;54931;52.098;21.006;2023-03-23T16:14:15;16.81;51.42
68128;SHT30;54931;52.098;21.006;2023-03-23T16:16:44;16.78;51.78
68128;SHT30;54931;52.098;21.006;2023-03-23T16:19:15;16.73;52.11
68128;SHT30;54931;52.098;21.006;2023-03-23T16:21:44;16.67;52.53
68128;SHT30;54931;52.098;21.006;2023-03-23T16:24:12;16.60;52.95
68128;SHT30;54931;52.098;21.006;2023-03-23T16:26:40;16.54;53.23
68128;SHT30;54931;52.098;21.006;2023-03-23T16:29:10;16.47;53.41
68128;SHT30;54931;52.098;21.006;2023-03-23T16:31:41;16.41;53.65
68128;SHT30;54931;52.098;21.006;2023-03-23T16:34:09;16.34;53.94
68128;SHT30;54931;52.098;21.006;2023-03-23T16:36:37;16.28;54.27
68128;SHT30;54931;52.098;21.006;2023-03-23T16:39:05;16.20;54.70
68128;SHT30;54931;52.098;21.006;2023-03-23T16:41:33;16.09;55.17
68128;SHT30;54931;52.098;21.006;2023-03-23T16:44:01;15.97;55.81
68128;SHT30;54931;52.098;21.006;2023-03-23T16:46:29;15.85;56.19
68128;SHT30;54931;52.098;21.006;2023-03-23T16:48:58;15.75;56.75
68128;SHT30;54931;52.098;21.006;2023-03-23T16:51:26;15.66;56.94
68128;SHT30;54931;52.098;21.006;2023-03-23T16:53:54;15.58;57.24
68128;SHT30;54931;52.098;21.006;2023-03-23T16:56:22;15.51;57.58
68128;SHT30;54931;52.098;21.006;2023-03-23T16:58:50;15.42;57.98
68128;SHT30;54931;52.098;21.006;2023-03-23T17:01:18;15.34;58.42
68128;SHT30;54931;52.098;21.006;2023-03-23T17:03:46;15.26;58.55
68128;SHT30;54931;52.098;21.006;2023-03-23T17:06:15;15.19;59.02
68128;SHT30;54931;52.098;21.006;2023-03-23T17:08:42;15.11;59.22
68128;SHT30;54931;52.098;21.006;2023-03-23T17:11:10;15.05;59.34
68128;SHT30;54931;52.098;21.006;2023-03-23T17:13:37;14.99;59.69
68128;SHT30;54931;52.098;21.006;2023-03-23T17:16:05;14.94;59.82
68128;SHT30;54931;52.098;21.006;2023-03-23T17:18:34;14.88;59.93
68128;SHT30;54931;52.098;21.006;2023-03-23T17:21:02;14.81;60.11
68128;SHT30;54931;52.098;21.006;2023-03-23T17:23:30;14.73;60.38
68128;SHT30;54931;52.098;21.006;2023-03-23T17:25:58;14.64;60.65
68128;SHT30;54931;52.098;21.006;2023-03-23T17:28:26;14.56;60.90
68128;SHT30;54931;52.098;21.006;2023-03-23T17:30:53;14.47;61.07
68128;SHT30;54931;52.098;21.006;2023-03-23T17:33:21;14.40;61.32
68128;SHT30;54931;52.098;21.006;2023-03-23T17:35:48;14.34;61.58
68128;SHT30;54931;52.098;21.006;2023-03-23T17:38:18;14.29;61.91
68128;SHT30;54931;52.098;21.006;2023-03-23T17:40:46;14.24;62.07
68128;SHT30;54931;52.098;21.006;2023-03-23T17:43:14;14.19;62.30
68128;SHT30;54931;52.098;21.006;2023-03-23T17:45:42;14.15;62.61
68128;SHT30;54931;52.098;21.006;2023-03-23T17:48:10;14.13;62.82
68128;SHT30;54931;52.098;21.006;2023-03-23T17:50:38;14.08;63.02